Time;durP1;ratioP1;P1;durP2;ratioP2;P2;SDS_P1;SDS_P2;PMS_P1;PMS_P2;Temp;Humidity;BMP_temperature;BMP_pressure;BME280_temperature;BME280_humidity;BME280_pressure;Samples;Min_cycle;Max_cycle;Signal;HPM_P1;HPM_P2
2023/04/16 00:00:11;;;;;;;47.75;19.88;;;9.20;99.90;;;;;;5004761;28;20088;-64
2023/04/16 00:02:37;;;;;;;43.03;18.63;;;9.30;99.90;;;;;;4994690;28;20053;-64
2023/04/16 00:05:02;;;;;;;43.75;19.65;;;9.30;99.90;;;;;;5011924;28;20074;-64
2023/04/16 00:07:28;;;;;;;44.85;19.13;;;9.30;99.90;;;;;;4982447;28;20134;-64
2023/04/16 00:09:54;;;;;;;42.90;19.60;;;9.20;99.90;;;;;;4977295;28;20373;-64
2023/04/16 00:12:20;;;;;;;44.42;19.02;;;9.20;99.90;;;;;;5009985;28;20034;-64
2023/04/16 00:14:46;;;;;;;42.40;19.48;;;9.30;99.90;;;;;;4996381;28;20084;-64
2023/04/16 00:17:11;;;;;;;44.80;19.52;;;9.20;99.90;;;;;;5002406;28;20404;-64
2023/04/16 00:19:37;;;;;;;50.40;20.27;;;9.30;99.90;;;;;;4996819;28;20053;-64
2023/04/16 00:22:03;;;;;;;48.83;19.65;;;9.20;99.90;;;;;;5004362;28;20263;-64
2023/04/16 00:24:28;;;;;;;45.13;20.17;;;9.20;99.90;;;;;;5011238;28;20038;-64
2023/04/16 00:26:54;;;;;;;46.47;20.08;;;9.30;99.90;;;;;;5000989;28;20038;-64
2023/04/16 00:29:20;;;;;;;45.13;19.92;;;9.20;99.90;;;;;;4968267;28;20053;-64
2023/04/16 00:31:46;;;;;;;51.38;21.52;;;9.20;99.90;;;;;;5003104;28;20034;-64
2023/04/16 00:34:11;;;;;;;53.15;21.55;;;9.20;99.90;;;;;;5002386;28;20087;-64
2023/04/16 00:36:37;;;;;;;56.90;22.88;;;9.30;99.90;;;;;;5002738;28;20033;-64
2023/04/16 00:39:03;;;;;;;47.28;21.85;;;9.20;99.90;;;;;;4999566;28;20081;-64
2023/04/16 00:41:28;;;;;;;55.80;21.55;;;9.20;99.90;;;;;;4981479;28;20048;-64
2023/04/16 00:43:54;;;;;;;54.50;21.45;;;9.20;99.90;;;;;;5010381;28;20037;-64
2023/04/16 00:46:22;;;;;;;58.58;21.40;;;9.20;99.90;;;;;;4976782;28;20043;-64
2023/04/16 00:48:49;;;;;;;54.63;22.55;;;9.20;99.90;;;;;;5009887;28;20053;-64
2023/04/16 00:51:17;;;;;;;55.78;21.65;;;9.20;99.90;;;;;;4992663;28;20049;-64
2023/04/16 00:53:44;;;;;;;53.45;22.67;;;9.20;99.90;;;;;;5011732;28;20038;-64
2023/04/16 00:56:11;;;;;;;56.00;22.50;;;9.20;99.90;;;;;;5011806;28;20061;-64
2023/04/16 00:58:38;;;;;;;53.65;22.83;;;9.30;99.90;;;;;;4986194;28;20046;-64
2023/04/16 01:01:04;;;;;;;63.63;22.73;;;9.20;99.90;;;;;;5004780;28;20030;-63
2023/04/16 01:03:44;;;;;;;59.58;22.05;;;9.30;99.90;;;;;;5003608;28;20400;-64
2023/04/16 01:06:10;;;;;;;53.55;21.92;;;9.20;99.90;;;;;;4995213;28;20117;-64
2023/04/16 01:08:36;;;;;;;61.88;22.67;;;9.20;99.90;;;;;;5003420;28;20076;-64
2023/04/16 01:11:02;;;;;;;62.35;24.35;;;9.30;99.90;;;;;;5007583;28;20046;-64
2023/04/16 01:13:28;;;;;;;59.63;23.02;;;9.30;99.90;;;;;;5004436;28;20034;-64
2023/04/16 01:15:53;;;;;;;64.85;24.20;;;9.20;99.90;;;;;;4976058;28;20145;-64
2023/04/16 01:18:21;;;;;;;61.83;22.73;;;9.30;99.90;;;;;;4981514;28;20583;-64
2023/04/16 01:20:47;;;;;;;53.63;22.20;;;9.30;99.90;;;;;;4983703;28;20042;-64
2023/04/16 01:23:13;;;;;;;55.63;22.95;;;9.30;99.90;;;;;;4998921;28;20076;-64
2023/04/16 01:25:39;;;;;;;57.10;23.88;;;9.30;99.90;;;;;;4998555;28;20104;-64
2023/04/16 01:28:05;;;;;;;58.90;22.75;;;9.30;99.90;;;;;;5007536;28;20146;-64
2023/04/16 01:30:31;;;;;;;56.50;23.38;;;9.30;99.90;;;;;;5008366;28;20038;-64
2023/04/16 01:32:57;;;;;;;60.75;24.08;;;9.30;99.90;;;;;;4981215;28;20385;-64
2023/04/16 01:35:23;;;;;;;56.58;22.70;;;9.30;99.90;;;;;;5000047;28;20046;-64
2023/04/16 01:37:50;;;;;;;58.72;22.33;;;9.30;99.90;;;;;;5006332;28;20034;-64
2023/04/16 01:40:16;;;;;;;56.03;22.50;;;9.30;99.90;;;;;;5005072;28;20042;-64
2023/04/16 01:42:41;;;;;;;56.53;22.92;;;9.30;99.90;;;;;;4984289;28;20068;-64
2023/04/16 01:45:07;;;;;;;56.72;23.13;;;9.30;99.90;;;;;;5003527;28;20041;-64
2023/04/16 01:47:33;;;;;;;59.22;23.20;;;9.30;99.90;;;;;;4982236;28;20561;-64
2023/04/16 01:49:59;;;;;;;56.22;23.13;;;9.30;99.90;;;;;;4979305;28;20042;-64
2023/04/16 01:52:25;;;;;;;62.35;24.60;;;9.30;99.90;;;;;;4988557;28;20412;-64
2023/04/16 01:54:50;;;;;;;60.10;24.13;;;9.30;99.90;;;;;;4984983;28;20050;-64
2023/04/16 01:57:16;;;;;;;61.80;24.50;;;9.30;99.90;;;;;;4993248;28;20034;-64
2023/04/16 01:59:41;;;;;;;59.65;23.40;;;9.30;99.90;;;;;;5004196;28;20037;-64
2023/04/16 02:02:13;;;;;;;61.03;24.55;;;9.30;99.90;;;;;;5005630;28;20634;-64
2023/04/16 02:04:46;;;;;;;66.60;25.00;;;9.30;99.90;;;;;;4999090;28;20031;-64
2023/04/16 02:07:12;;;;;;;67.78;24.83;;;9.30;99.90;;;;;;5001915;28;20503;-64
2023/04/16 02:09:39;;;;;;;56.28;23.90;;;9.30;99.90;;;;;;4988159;28;20050;-64
2023/04/16 02:12:06;;;;;;;55.25;23.45;;;9.30;99.90;;;;;;4982674;28;20381;-64
2023/04/16 02:14:32;;;;;;;72.18;26.27;;;9.30;99.90;;;;;;4993272;28;20121;-64
2023/04/16 02:16:59;;;;;;;65.05;25.30;;;9.30;99.90;;;;;;4998457;28;20122;-64
2023/04/16 02:19:25;;;;;;;59.70;25.02;;;9.30;99.90;;;;;;4995383;28;20326;-64
2023/04/16 02:21:52;;;;;;;63.95;25.52;;;9.30;99.90;;;;;;4998274;28;20038;-64
2023/04/16 02:24:17;;;;;;;63.33;24.95;;;9.30;99.90;;;;;;4996375;28;20042;-64
2023/04/16 02:26:44;;;;;;;63.63;24.63;;;9.30;99.90;;;;;;4995930;28;20125;-64
2023/04/16 02:29:09;;;;;;;64.88;24.23;;;9.30;99.90;;;;;;4994848;28;20450;-64
2023/04/16 02:31:35;;;;;;;58.47;25.50;;;9.30;99.90;;;;;;4984542;28;20065;-64
2023/04/16 02:34:01;;;;;;;63.13;24.50;;;9.30;99.90;;;;;;4996054;28;20416;-64
2023/04/16 02:36:27;;;;;;;62.58;24.50;;;9.30;99.90;;;;;;5004326;28;20045;-64
2023/04/16 02:38:53;;;;;;;59.00;24.60;;;9.30;99.90;;;;;;5001839;28;20034;-64
2023/04/16 02:41:18;;;;;;;55.38;23.65;;;9.30;99.90;;;;;;5004514;28;20033;-64
2023/04/16 02:43:44;;;;;;;62.72;24.65;;;9.30;99.90;;;;;;4999395;28;20511;-63
2023/04/16 02:46:09;;;;;;;60.10;26.08;;;9.20;99.90;;;;;;4984234;28;20042;-64
2023/04/16 02:48:35;;;;;;;54.42;23.52;;;9.20;99.90;;;;;;4979964;28;20073;-64
2023/04/16 02:51:00;;;;;;;58.92;25.48;;;9.20;99.90;;;;;;4984221;28;20042;-64
2023/04/16 02:53:26;;;;;;;64.65;26.42;;;9.20;99.90;;;;;;4985447;28;20049;-65
2023/04/16 02:55:53;;;;;;;63.40;24.83;;;9.20;99.90;;;;;;4984776;28;20046;-65
2023/04/16 02:58:20;;;;;;;52.50;24.50;;;9.20;99.90;;;;;;4996823;28;20086;-65
2023/04/16 03:00:46;;;;;;;56.42;25.05;;;9.20;99.90;;;;;;4998634;28;20042;-65
2023/04/16 03:03:11;;;;;;;58.85;24.55;;;9.20;99.90;;;;;;4990908;28;20049;-65
2023/04/16 03:05:37;;;;;;;59.22;25.08;;;9.20;99.90;;;;;;5005084;28;20040;-65
2023/04/16 03:08:03;;;;;;;56.40;24.73;;;9.20;99.90;;;;;;5009891;28;20034;-65
2023/04/16 03:10:29;;;;;;;52.40;24.05;;;9.20;99.90;;;;;;4987427;28;20053;-65
2023/04/16 03:12:54;;;;;;;60.03;25.55;;;9.20;99.90;;;;;;4991260;28;20411;-65
2023/04/16 03:15:20;;;;;;;57.15;26.05;;;9.20;99.90;;;;;;4992821;28;20045;-65
2023/04/16 03:17:46;;;;;;;63.95;25.27;;;9.20;99.90;;;;;;4993023;28;20053;-65
2023/04/16 03:20:11;;;;;;;52.97;24.75;;;9.20;99.90;;;;;;4999284;28;20034;-65
2023/04/16 03:22:40;;;;;;;60.45;24.58;;;9.20;99.90;;;;;;5004399;28;20042;-65
2023/04/16 03:25:06;;;;;;;56.22;26.27;;;9.20;99.90;;;;;;5008814;28;20124;-65
2023/04/16 03:27:32;;;;;;;55.97;24.63;;;9.20;99.90;;;;;;4984724;28;20046;-65
2023/04/16 03:29:58;;;;;;;63.67;25.88;;;9.20;99.90;;;;;;5006209;28;20029;-65
2023/04/16 03:32:23;;;;;;;59.13;24.45;;;9.20;99.90;;;;;;4996811;28;20037;-65
2023/04/16 03:34:49;;;;;;;54.67;23.42;;;9.20;99.90;;;;;;4980008;28;20556;-65
2023/04/16 03:37:15;;;;;;;58.97;24.95;;;9.20;99.90;;;;;;4977913;28;20034;-65
2023/04/16 03:39:41;;;;;;;53.63;23.48;;;9.20;99.90;;;;;;5011544;28;20041;-65
2023/04/16 03:42:06;;;;;;;56.25;24.83;;;9.20;99.90;;;;;;5007553;28;20034;-65
2023/04/16 03:44:32;;;;;;;53.70;24.48;;;9.20;99.90;;;;;;5008237;28;20033;-65
2023/04/16 03:46:58;;;;;;;51.83;25.73;;;9.20;99.90;;;;;;4993886;28;20080;-65
2023/04/16 03:49:23;;;;;;;53.25;25.15;;;9.20;99.90;;;;;;5001660;28;20049;-65
2023/04/16 03:51:49;;;;;;;52.03;23.58;;;9.10;99.90;;;;;;5007269;28;20044;-65
2023/04/16 03:54:15;;;;;;;52.20;24.42;;;9.10;99.90;;;;;;4985840;28;20121;-65
2023/04/16 03:56:40;;;;;;;48.00;24.08;;;9.20;99.90;;;;;;5006481;28;20034;-65
2023/04/16 03:59:06;;;;;;;52.92;24.08;;;9.10;99.90;;;;;;4985024;28;20641;-65
2023/04/16 04:01:32;;;;;;;47.28;24.67;;;9.10;99.90;;;;;;4981324;28;20512;-65
2023/04/16 04:03:58;;;;;;;48.33;25.40;;;9.10;99.90;;;;;;5010781;28;20128;-65
2023/04/16 04:06:23;;;;;;;52.65;25.33;;;9.10;99.90;;;;;;5010804;28;20396;-65
2023/04/16 04:08:49;;;;;;;49.42;25.10;;;9.10;99.90;;;;;;4992391;28;20034;-65
2023/04/16 04:11:18;;;;;;;49.60;25.13;;;9.10;99.90;;;;;;4969013;28;20046;-65
2023/04/16 04:13:43;;;;;;;53.15;24.83;;;9.10;99.90;;;;;;5004453;28;20481;-65
2023/04/16 04:16:09;;;;;;;46.83;24.05;;;9.10;99.90;;;;;;4983242;28;20038;-65
2023/04/16 04:18:35;;;;;;;54.38;25.48;;;9.10;99.90;;;;;;5009937;28;20038;-65
2023/04/16 04:21:07;;;;;;;47.53;24.33;;;9.10;99.90;;;;;;5007362;28;20030;-65
2023/04/16 04:23:34;;;;;;;54.92;24.35;;;9.10;99.90;;;;;;5005788;28;20046;-65
2023/04/16 04:26:02;;;;;;;47.75;24.98;;;9.10;99.90;;;;;;4999334;28;20053;-65
2023/04/16 04:28:29;;;;;;;47.83;25.45;;;9.10;99.90;;;;;;5003587;28;20121;-65
2023/04/16 04:30:56;;;;;;;51.90;25.45;;;9.10;99.90;;;;;;5003772;28;20432;-65
2023/04/16 04:33:22;;;;;;;55.00;25.23;;;9.10;99.90;;;;;;5011764;28;20164;-65
2023/04/16 04:35:47;;;;;;;50.63;24.85;;;9.10;99.90;;;;;;4999251;28;20108;-65
2023/04/16 04:38:13;;;;;;;55.47;25.05;;;9.10;99.90;;;;;;4991449;28;20038;-65
2023/04/16 04:40:39;;;;;;;48.20;24.35;;;9.10;99.90;;;;;;4985439;28;20043;-65
2023/04/16 04:43:04;;;;;;;57.33;25.48;;;9.10;99.90;;;;;;4987107;28;20314;-65
2023/04/16 04:45:30;;;;;;;55.58;26.25;;;9.10;99.90;;;;;;4994692;28;20037;-65
2023/04/16 04:47:55;;;;;;;54.25;25.77;;;9.20;99.90;;;;;;5008577;28;20038;-65
2023/04/16 04:50:21;;;;;;;50.88;24.85;;;9.20;99.90;;;;;;4973574;28;20049;-65
2023/04/16 04:52:46;;;;;;;50.15;24.55;;;9.10;99.90;;;;;;4994713;28;20515;-65
2023/04/16 04:55:14;;;;;;;48.88;25.15;;;9.10;99.90;;;;;;4982166;28;20059;-65
2023/04/16 04:57:40;;;;;;;51.65;24.70;;;9.20;99.90;;;;;;5010453;28;20037;-65
2023/04/16 05:00:07;;;;;;;48.33;25.50;;;9.20;99.90;;;;;;5006096;28;20038;-65
2023/04/16 05:02:32;;;;;;;48.47;24.85;;;9.10;99.90;;;;;;4983366;28;20081;-65
2023/04/16 05:04:58;;;;;;;58.90;26.50;;;9.10;99.90;;;;;;4989721;28;20065;-65
2023/04/16 05:07:23;;;;;;;53.28;26.05;;;9.20;99.90;;;;;;5004352;28;20084;-65
2023/04/16 05:09:49;;;;;;;53.50;25.73;;;9.10;99.90;;;;;;4991916;28;20243;-65
2023/04/16 05:12:15;;;;;;;49.85;26.00;;;9.20;99.90;;;;;;4990835;28;20045;-65
2023/04/16 05:14:41;;;;;;;51.08;26.45;;;9.10;99.90;;;;;;4985144;28;20077;-65
2023/04/16 05:17:06;;;;;;;50.25;26.10;;;9.10;99.90;;;;;;4993032;28;20113;-65
2023/04/16 05:19:32;;;;;;;54.92;26.33;;;9.10;99.90;;;;;;5006341;28;20037;-65
2023/04/16 05:21:58;;;;;;;50.60;26.25;;;9.10;99.90;;;;;;4992045;28;20504;-65
2023/04/16 05:24:24;;;;;;;54.45;26.08;;;9.20;99.90;;;;;;5010353;28;20042;-65
2023/04/16 05:26:50;;;;;;;49.45;25.95;;;9.10;99.90;;;;;;4997269;28;20034;-65
2023/04/16 05:29:15;;;;;;;45.00;25.13;;;9.10;99.90;;;;;;5009785;28;20528;-65
2023/04/16 05:31:41;;;;;;;50.65;24.75;;;9.20;99.90;;;;;;5002844;28;20088;-65
2023/04/16 05:34:06;;;;;;;51.97;24.85;;;9.20;99.90;;;;;;4991052;28;20483;-65
2023/04/16 05:36:32;;;;;;;51.45;26.42;;;9.10;99.90;;;;;;4993972;28;20066;-65
2023/04/16 05:38:57;;;;;;;50.63;25.05;;;9.10;99.90;;;;;;4983104;28;20603;-65
2023/04/16 05:41:23;;;;;;;55.47;25.52;;;9.10;99.90;;;;;;4995752;28;20038;-65
2023/04/16 05:43:49;;;;;;;47.92;26.00;;;9.20;99.90;;;;;;5000996;28;20046;-65
2023/04/16 05:46:14;;;;;;;52.40;24.92;;;9.20;99.90;;;;;;5007144;28;20038;-65
2023/04/16 05:48:40;;;;;;;48.15;24.98;;;9.20;99.90;;;;;;5009137;28;20081;-65
2023/04/16 05:51:06;;;;;;;52.55;25.77;;;9.20;99.90;;;;;;5002684;28;20515;-65
2023/04/16 05:53:31;;;;;;;48.42;24.05;;;9.20;99.90;;;;;;4998281;28;20470;-65
2023/04/16 05:55:57;;;;;;;49.58;25.60;;;9.20;99.90;;;;;;5010190;28;20558;-65
2023/04/16 05:58:22;;;;;;;50.92;25.17;;;9.20;99.90;;;;;;4992781;28;20038;-65
2023/04/16 06:00:48;;;;;;;48.63;25.65;;;9.20;99.90;;;;;;5001643;28;20073;-65
2023/04/16 06:03:13;;;;;;;50.33;24.75;;;9.20;99.90;;;;;;5009006;28;20041;-66
2023/04/16 06:05:39;;;;;;;46.25;23.48;;;9.20;99.90;;;;;;4991972;28;20034;-65
2023/04/16 06:08:04;;;;;;;50.20;26.33;;;9.20;99.90;;;;;;4980502;28;21004;-65
2023/04/16 06:10:30;;;;;;;44.70;23.55;;;9.30;99.90;;;;;;4996894;28;20093;-65
2023/04/16 06:12:56;;;;;;;51.17;24.67;;;9.30;99.90;;;;;;5007602;28;20435;-66
2023/04/16 06:15:21;;;;;;;48.58;24.48;;;9.30;99.90;;;;;;5010105;28;20081;-65
2023/04/16 06:17:48;;;;;;;50.55;25.45;;;9.30;99.90;;;;;;5001899;28;20097;-65
2023/04/16 06:20:13;;;;;;;49.67;24.52;;;9.30;99.90;;;;;;4974875;28;20504;-65
2023/04/16 06:22:39;;;;;;;44.15;24.35;;;9.30;99.90;;;;;;5004860;28;20117;-65
2023/04/16 06:25:05;;;;;;;49.30;25.60;;;9.30;99.90;;;;;;5010082;28;20042;-65
2023/04/16 06:27:30;;;;;;;45.85;24.35;;;9.40;99.90;;;;;;4999865;28;20053;-65
2023/04/16 06:29:56;;;;;;;42.35;23.30;;;9.40;99.90;;;;;;5010247;28;20038;-65
2023/04/16 06:32:22;;;;;;;46.20;24.10;;;9.50;99.90;;;;;;5008378;28;20048;-65
2023/04/16 06:34:48;;;;;;;53.60;25.10;;;9.50;99.90;;;;;;4982586;28;20116;-64
2023/04/16 06:37:13;;;;;;;48.08;23.77;;;9.50;99.90;;;;;;5003650;28;20687;-65
2023/04/16 06:39:39;;;;;;;45.47;23.70;;;9.50;99.90;;;;;;4992689;28;20046;-65
2023/04/16 06:42:05;;;;;;;47.50;23.70;;;9.60;99.90;;;;;;4985735;28;20400;-65
2023/04/16 06:44:30;;;;;;;46.85;23.98;;;9.60;99.90;;;;;;5003977;28;20041;-64
2023/04/16 06:46:56;;;;;;;39.17;22.92;;;9.60;99.90;;;;;;4982488;28;20046;-65
2023/04/16 06:49:21;;;;;;;43.35;24.92;;;9.70;99.90;;;;;;5007330;28;20033;-65
2023/04/16 06:51:47;;;;;;;45.72;23.52;;;9.80;99.90;;;;;;5004695;28;20048;-65
2023/04/16 06:54:13;;;;;;;40.40;22.85;;;9.80;99.90;;;;;;5006669;28;20138;-65
2023/04/16 06:56:38;;;;;;;37.58;21.63;;;9.90;99.90;;;;;;4993572;28;20125;-65
2023/04/16 06:59:04;;;;;;;41.72;22.80;;;9.90;99.90;;;;;;4976064;28;20406;-65
2023/04/16 07:01:30;;;;;;;39.90;22.30;;;10.00;99.90;;;;;;4983214;28;20042;-65
2023/04/16 07:03:56;;;;;;;41.90;22.20;;;10.10;99.90;;;;;;4993711;28;20040;-65
2023/04/16 07:06:22;;;;;;;37.72;23.20;;;10.20;99.90;;;;;;5000493;28;20125;-64
2023/04/16 07:08:48;;;;;;;39.42;22.00;;;10.30;99.90;;;;;;5001874;28;20460;-65
2023/04/16 07:11:13;;;;;;;35.60;20.90;;;10.40;99.90;;;;;;5009998;28;20455;-66
2023/04/16 07:13:39;;;;;;;44.42;23.13;;;10.50;99.90;;;;;;5002918;28;20113;-65
2023/04/16 07:16:05;;;;;;;41.28;23.08;;;10.60;99.90;;;;;;5003435;28;20046;-65
2023/04/16 07:18:31;;;;;;;43.85;23.23;;;10.60;99.90;;;;;;5009564;28;20431;-65
2023/04/16 07:20:56;;;;;;;43.33;23.60;;;10.60;99.90;;;;;;4990901;28;20563;-65
2023/04/16 07:23:22;;;;;;;40.33;22.42;;;10.60;99.90;;;;;;4987803;28;20038;-64
2023/04/16 07:25:47;;;;;;;39.83;22.35;;;10.70;99.90;;;;;;5002716;28;20030;-65
2023/04/16 07:28:15;;;;;;;38.53;21.40;;;10.70;99.90;;;;;;4998058;28;20049;-65
2023/04/16 07:30:42;;;;;;;38.17;21.58;;;10.70;99.90;;;;;;4988823;28;20081;-65
2023/04/16 07:33:07;;;;;;;35.47;20.85;;;10.70;99.90;;;;;;4996083;28;20081;-65
2023/04/16 07:35:33;;;;;;;36.63;20.95;;;10.70;99.90;;;;;;4980279;28;20066;-65
2023/04/16 07:37:59;;;;;;;39.88;21.60;;;10.80;99.90;;;;;;4986218;28;20045;-65
2023/04/16 07:40:25;;;;;;;35.30;20.83;;;10.80;99.90;;;;;;5007191;28;20041;-65
2023/04/16 07:42:50;;;;;;;35.83;20.48;;;10.80;99.90;;;;;;5001536;28;20034;-65
2023/04/16 07:45:18;;;;;;;36.08;21.13;;;10.90;99.90;;;;;;4994372;28;20041;-65
2023/04/16 07:47:44;;;;;;;38.70;21.63;;;10.90;99.90;;;;;;4984068;28;20679;-64
2023/04/16 07:50:11;;;;;;;33.50;21.08;;;10.90;99.90;;;;;;5000854;28;20038;-65
2023/04/16 07:52:40;;;;;;;38.13;21.33;;;10.90;99.90;;;;;;4979788;28;20046;-65
2023/04/16 07:55:06;;;;;;;35.33;20.67;;;10.90;99.90;;;;;;4986513;28;20061;-65
2023/04/16 07:57:32;;;;;;;33.30;19.83;;;10.90;99.90;;;;;;4986851;28;20049;-65
2023/04/16 07:59:58;;;;;;;38.88;22.80;;;10.90;99.90;;;;;;5004666;28;20030;-65
2023/04/16 08:02:25;;;;;;;34.10;19.27;;;11.00;99.90;;;;;;5006128;28;20495;-65
2023/04/16 08:04:51;;;;;;;37.42;20.58;;;11.00;99.90;;;;;;5004139;28;20030;-65
2023/04/16 08:07:16;;;;;;;34.83;19.48;;;11.00;99.90;;;;;;5004660;28;20037;-65
2023/04/16 08:09:51;;;;;;;32.30;18.77;;;11.00;99.90;;;;;;4989638;28;20501;-65
2023/04/16 08:12:17;;;;;;;32.65;18.90;;;11.00;99.90;;;;;;4998795;28;20038;-65
2023/04/16 08:14:43;;;;;;;33.00;18.67;;;11.00;99.90;;;;;;4986466;28;20083;-65
2023/04/16 08:17:10;;;;;;;35.90;19.30;;;10.90;99.90;;;;;;5004162;28;20117;-65
2023/04/16 08:19:36;;;;;;;34.63;19.95;;;11.00;99.90;;;;;;5004233;28;20056;-66
2023/04/16 08:22:01;;;;;;;31.73;18.48;;;11.00;99.90;;;;;;5011995;28;20487;-65
2023/04/16 08:24:27;;;;;;;28.50;17.55;;;11.00;99.90;;;;;;5009148;28;20042;-65
2023/04/16 08:26:53;;;;;;;33.88;19.15;;;11.10;99.90;;;;;;4986850;28;20042;-65
2023/04/16 08:29:19;;;;;;;33.35;18.70;;;11.10;99.90;;;;;;4987371;28;20369;-65
2023/04/16 08:31:45;;;;;;;32.20;19.17;;;11.10;99.90;;;;;;4985058;28;20076;-65
2023/04/16 08:34:11;;;;;;;36.58;18.08;;;11.10;99.90;;;;;;5005568;28;20066;-65
2023/04/16 08:36:37;;;;;;;32.88;18.30;;;11.20;99.90;;;;;;4992026;28;20090;-65
2023/04/16 08:39:02;;;;;;;28.58;16.70;;;11.20;99.90;;;;;;5008749;28;20037;-65
2023/04/16 08:41:31;;;;;;;36.35;19.13;;;11.40;99.90;;;;;;5009852;28;20123;-65
2023/04/16 08:44:00;;;;;;;36.95;18.63;;;11.60;99.90;;;;;;4992035;28;20048;-65
2023/04/16 08:46:27;;;;;;;32.50;18.30;;;11.80;99.90;;;;;;4991513;28;20489;-65
2023/04/16 08:48:57;;;;;;;29.25;16.63;;;11.90;99.90;;;;;;5010493;28;20544;-65
2023/04/16 08:51:27;;;;;;;33.42;16.95;;;12.10;99.90;;;;;;4982862;28;20042;-65
2023/04/16 08:54:00;;;;;;;32.42;17.08;;;12.30;99.90;;;;;;4990151;28;20113;-65
2023/04/16 08:56:26;;;;;;;32.85;17.45;;;12.60;99.90;;;;;;5006529;28;20124;-65
2023/04/16 08:58:57;;;;;;;33.72;18.55;;;12.80;99.90;;;;;;4992958;28;20137;-65
2023/04/16 09:01:25;;;;;;;36.72;18.48;;;12.90;99.90;;;;;;4988902;28;20133;-65
2023/04/16 09:03:51;;;;;;;32.55;17.83;;;13.10;99.90;;;;;;5001532;28;20496;-65
2023/04/16 09:06:17;;;;;;;37.05;17.02;;;13.20;99.90;;;;;;5007382;28;20046;-65
2023/04/16 09:08:45;;;;;;;30.45;16.58;;;13.10;99.90;;;;;;4992046;28;20040;-65
2023/04/16 09:11:12;;;;;;;26.73;15.27;;;13.10;99.90;;;;;;5007722;28;20503;-66
2023/04/16 09:13:38;;;;;;;25.13;16.98;;;13.10;99.90;;;;;;4985865;28;20120;-65
2023/04/16 09:16:06;;;;;;;27.33;15.90;;;13.30;99.90;;;;;;4999115;28;20125;-65
2023/04/16 09:18:31;;;;;;;28.65;16.70;;;13.50;99.90;;;;;;5009302;28;20049;-66
2023/04/16 09:20:57;;;;;;;26.13;16.33;;;13.80;99.90;;;;;;5005336;28;20037;-65
2023/04/16 09:23:23;;;;;;;29.15;16.77;;;14.00;99.90;;;;;;4991606;28;20096;-65
2023/04/16 09:25:49;;;;;;;28.58;15.93;;;14.20;99.90;;;;;;5007056;28;20542;-66
2023/04/16 09:28:38;;;;;;;24.88;16.40;;;14.40;99.90;;;;;;5001858;28;20053;-65
2023/04/16 09:31:12;;;;;;;27.50;16.73;;;14.70;99.90;;;;;;5001397;28;20629;-65
2023/04/16 09:33:37;;;;;;;26.08;16.75;;;14.90;99.90;;;;;;5005909;28;20489;-65
2023/04/16 09:36:04;;;;;;;25.65;16.20;;;15.00;99.90;;;;;;5008487;28;20053;-65
2023/04/16 09:38:46;;;;;;;28.92;16.52;;;15.00;99.90;;;;;;5000355;28;20042;-65
2023/04/16 09:41:12;;;;;;;;;;;14.80;99.90;;;;;;4986794;28;20042;-66
2023/04/16 09:43:38;;;;;;;483.52;42.10;;;14.60;99.90;;;;;;5004272;28;19917;-65
2023/04/16 09:46:04;;;;;;;84.03;19.00;;;14.50;99.90;;;;;;5001048;28;20038;-65
2023/04/16 09:48:31;;;;;;;34.53;16.05;;;14.50;99.90;;;;;;4990723;28;20092;-66
2023/04/16 09:50:57;;;;;;;29.50;16.00;;;14.40;99.90;;;;;;4984293;28;20362;-66
2023/04/16 09:53:30;;;;;;;35.33;15.50;;;14.40;99.90;;;;;;5001281;28;20034;-65
2023/04/16 09:56:01;;;;;;;24.80;15.43;;;14.40;99.90;;;;;;5002410;28;20088;-65
2023/04/16 09:58:27;;;;;;;28.98;15.48;;;14.50;99.90;;;;;;5006270;28;20121;-66
2023/04/16 10:01:12;;;;;;;27.10;17.05;;;14.50;99.90;;;;;;5004909;28;20460;-65
2023/04/16 10:03:39;;;;;;;28.38;15.10;;;14.40;99.90;;;;;;4983193;28;20064;-65
2023/04/16 10:06:16;;;;;;;28.10;15.88;;;14.40;99.90;;;;;;5004568;28;20029;-65
2023/04/16 10:08:50;;;;;;;26.48;14.88;;;14.50;99.90;;;;;;4989087;28;20070;-65
2023/04/16 10:11:17;;;;;;;25.05;15.18;;;14.60;99.90;;;;;;5008417;28;20400;-65
2023/04/16 10:13:43;;;;;;;26.92;15.25;;;14.70;99.90;;;;;;4987915;28;20042;-65
2023/04/16 10:16:08;;;;;;;23.95;15.43;;;14.90;99.90;;;;;;5002476;28;20103;-65
2023/04/16 10:18:43;;;;;;;22.88;13.95;;;15.10;99.90;;;;;;4984273;28;20082;-66
2023/04/16 10:21:11;;;;;;;22.98;14.40;;;15.40;99.90;;;;;;4984746;28;20042;-65
2023/04/16 10:23:41;;;;;;;23.65;14.70;;;15.60;99.90;;;;;;4963504;28;20050;-65
2023/04/16 10:26:08;;;;;;;21.45;14.32;;;15.70;99.90;;;;;;4992949;28;20084;-66
2023/04/16 10:28:36;;;;;;;20.13;13.25;;;15.90;99.90;;;;;;5007007;28;20053;-65
2023/04/16 10:31:07;;;;;;;24.15;14.85;;;16.10;99.90;;;;;;4997890;28;20042;-66
2023/04/16 10:33:35;;;;;;;18.88;13.45;;;16.30;99.90;;;;;;5000553;28;20038;-65
2023/04/16 10:36:15;;;;;;;18.15;12.85;;;16.40;99.90;;;;;;4982076;28;20045;-65
2023/04/16 10:38:51;;;;;;;21.23;13.23;;;16.50;99.90;;;;;;5004224;28;20034;-65
2023/04/16 10:41:19;;;;;;;22.63;13.25;;;16.50;99.90;;;;;;4996186;28;20122;-65
2023/04/16 10:43:46;;;;;;;20.80;13.13;;;16.50;99.90;;;;;;4987648;28;20080;-65
2023/04/16 10:46:29;;;;;;;19.35;13.70;;;16.40;99.90;;;;;;5009879;28;20088;-65
2023/04/16 10:48:59;;;;;;;23.85;13.68;;;16.20;99.90;;;;;;5003350;28;20042;-65
2023/04/16 10:51:35;;;;;;;18.60;13.75;;;16.00;99.90;;;;;;4990698;28;20053;-65
2023/04/16 10:54:22;;;;;;;20.02;13.07;;;15.90;99.90;;;;;;5013389;28;20037;-65
2023/04/16 10:56:49;;;;;;;21.88;13.07;;;15.90;99.90;;;;;;5012600;28;20554;-65
2023/04/16 10:59:18;;;;;;;18.73;13.50;;;16.00;99.90;;;;;;5009714;28;20038;-65
2023/04/16 11:01:46;;;;;;;18.08;12.90;;;16.20;99.90;;;;;;4985821;28;20038;-65
2023/04/16 11:04:20;;;;;;;19.58;13.63;;;16.30;99.90;;;;;;4998359;28;20069;-65
2023/04/16 11:07:15;;;;;;;18.27;12.95;;;16.30;99.90;;;;;;4990275;28;20053;-65
2023/04/16 11:10:00;;;;;;;19.00;13.95;;;16.30;99.90;;;;;;5002678;28;20107;-65
2023/04/16 11:12:32;;;;;;;19.98;12.40;;;16.20;99.90;;;;;;4981806;28;20046;-65
2023/04/16 11:15:08;;;;;;;19.10;12.70;;;16.10;99.90;;;;;;4981772;28;20095;-65
2023/04/16 11:17:43;;;;;;;21.67;12.25;;;16.10;99.90;;;;;;5011502;28;20161;-65
2023/04/16 11:20:17;;;;;;;16.90;12.80;;;16.10;99.90;;;;;;4998782;28;20038;-65
2023/04/16 11:22:44;;;;;;;21.80;12.80;;;16.10;99.90;;;;;;4993243;28;20326;-65
2023/04/16 11:25:10;;;;;;;25.35;13.05;;;16.10;99.90;;;;;;4991704;28;20503;-65
2023/04/16 11:27:36;;;;;;;21.80;12.50;;;15.90;99.90;;;;;;5002877;28;20517;-65
2023/04/16 11:30:08;;;;;;;23.35;13.32;;;15.80;99.90;;;;;;4983355;28;20049;-65
2023/04/16 11:32:35;;;;;;;22.52;13.73;;;15.80;99.90;;;;;;5011564;28;20511;-65
2023/04/16 11:35:04;;;;;;;24.33;13.77;;;15.70;99.90;;;;;;4985047;28;20074;-65
2023/04/16 11:37:34;;;;;;;24.10;13.95;;;15.60;99.90;;;;;;4992729;28;20436;-65
2023/04/16 11:40:01;;;;;;;21.23;12.95;;;15.50;99.90;;;;;;4992999;28;20046;-65
2023/04/16 11:42:27;;;;;;;25.42;13.15;;;15.40;99.90;;;;;;5004951;28;20042;-65
2023/04/16 11:44:59;;;;;;;22.95;13.40;;;15.30;99.90;;;;;;5009671;28;20041;-65
2023/04/16 11:47:25;;;;;;;24.05;13.85;;;15.30;99.90;;;;;;4994121;28;20046;-65
2023/04/16 11:49:51;;;;;;;26.73;13.60;;;15.30;99.90;;;;;;5002327;28;20038;-65
2023/04/16 11:52:31;;;;;;;21.92;13.20;;;15.30;99.90;;;;;;5006384;28;20049;-65
2023/04/16 11:54:58;;;;;;;23.00;13.15;;;15.40;99.90;;;;;;4983338;28;20045;-65
2023/04/16 11:57:25;;;;;;;24.45;13.15;;;15.40;99.90;;;;;;5012108;28;20455;-65
2023/04/16 11:59:51;;;;;;;22.65;13.02;;;15.40;99.90;;;;;;4990698;28;20433;-65
2023/04/16 12:02:16;;;;;;;25.17;14.10;;;15.30;99.90;;;;;;4998943;28;20049;-65
2023/04/16 12:04:42;;;;;;;23.08;12.90;;;15.30;99.90;;;;;;5003935;28;20035;-65
2023/04/16 12:07:11;;;;;;;23.48;13.43;;;15.30;99.90;;;;;;5004700;28;20091;-65
2023/04/16 12:09:39;;;;;;;23.40;13.95;;;15.30;99.90;;;;;;5011689;28;20121;-65
2023/04/16 12:12:05;;;;;;;25.15;13.32;;;15.30;99.90;;;;;;4983227;28;20045;-65
2023/04/16 12:14:31;;;;;;;23.98;13.77;;;15.30;99.90;;;;;;5009951;28;20038;-65
2023/04/16 12:17:19;;;;;;;21.13;12.15;;;15.30;99.90;;;;;;5004431;28;20042;-65
2023/04/16 12:19:54;;;;;;;22.88;13.20;;;15.30;99.90;;;;;;4974787;28;20088;-65
2023/04/16 12:22:30;;;;;;;20.63;13.18;;;15.30;99.90;;;;;;5003916;28;20085;-65
2023/04/16 12:25:04;;;;;;;25.15;12.98;;;15.30;99.90;;;;;;4978832;28;20066;-65
2023/04/16 12:27:50;;;;;;;22.83;13.77;;;15.30;99.90;;;;;;5009232;28;20116;-65
2023/04/16 12:30:18;;;;;;;25.08;13.90;;;15.30;99.90;;;;;;5006227;28;20034;-65
2023/04/16 12:32:46;;;;;;;23.98;14.18;;;15.30;99.90;;;;;;5006021;28;20084;-65